KOUN/OUN METAR and TAF weather

Enter ICAO airport designator
Station Type Date Time Source
KOUN METAR 2021/08/01 17:45 UTC NOAA

KOUN 011745Z 15004KT 10SM SCT090 BKN120 22/21 A3013


Station Type Date Time Source
KOUN Decoded METAR 2021/08/01 17:45 UTC NOAA

Norman / Max Westheimer, OK, United States (KOUN) 35-13N 097-27W 357M
Aug 01, 2021 - 01:45 PM EDT / 2021.08.01 1745 UTC
Wind: from the SSE (150 degrees) at 5 MPH (4 KT):0
Visibility: 10 mile(s):0
Sky conditions: mostly cloudy
Temperature: 71 F (22 C)
Dew Point: 69 F (21 C)
Relative Humidity: 94%
Pressure (altimeter): 30.13 in. Hg (1020 hPa)
ob: KOUN 011745Z 15004KT 10SM SCT090 BKN120 22/21 A3013
cycle: 18

Station Type Date Time Source
KOUN TAF 2021/08/01 18:33 UTC NOAA

TAF KOUN 011731Z 0118/0218 06010KT P6SM VCTS SCT020CB BKN120
TEMPO 0118/0121 4SM -SHRA BKN020
FM012300 02006KT P6SM SCT120

Example: see airport list